sensor_id;sensor_type;location;lat;lon;timestamp;temperature;humidity
45619;DHT22;31343;47.520;19.144;2023-07-28T00:01:28;17.80;99.90
45619;DHT22;31343;47.520;19.144;2023-07-28T00:03:54;17.90;99.90
45619;DHT22;31343;47.520;19.144;2023-07-28T00:06:20;17.90;99.90
45619;DHT22;31343;47.520;19.144;2023-07-28T00:08:46;17.90;99.90
45619;DHT22;31343;47.520;19.144;2023-07-28T00:11:12;17.80;99.90
45619;DHT22;31343;47.520;19.144;2023-07-28T00:13:39;17.80;99.90
45619;DHT22;31343;47.520;19.144;2023-07-28T00:16:06;17.80;99.90
45619;DHT22;31343;47.520;19.144;2023-07-28T00:18:32;17.80;99.90
45619;DHT22;31343;47.520;19.144;2023-07-28T00:20:57;17.70;99.90
45619;DHT22;31343;47.520;19.144;2023-07-28T00:23:24;17.60;99.90
45619;DHT22;31343;47.520;19.144;2023-07-28T00:25:50;17.50;99.90
45619;DHT22;31343;47.520;19.144;2023-07-28T00:28:15;17.40;99.90
45619;DHT22;31343;47.520;19.144;2023-07-28T00:30:41;17.50;99.90
45619;DHT22;31343;47.520;19.144;2023-07-28T00:33:07;17.50;99.90
45619;DHT22;31343;47.520;19.144;2023-07-28T00:35:33;17.40;99.90
45619;DHT22;31343;47.520;19.144;2023-07-28T00:37:58;17.40;99.90
45619;DHT22;31343;47.520;19.144;2023-07-28T00:40:24;17.40;99.90
45619;DHT22;31343;47.520;19.144;2023-07-28T00:42:50;17.40;99.90
45619;DHT22;31343;47.520;19.144;2023-07-28T00:45:16;17.40;99.90
45619;DHT22;31343;47.520;19.144;2023-07-28T00:47:42;17.30;99.90
45619;DHT22;31343;47.520;19.144;2023-07-28T00:50:11;17.30;99.90
45619;DHT22;31343;47.520;19.144;2023-07-28T00:52:38;17.40;99.90
45619;DHT22;31343;47.520;19.144;2023-07-28T00:55:06;17.40;99.90
45619;DHT22;31343;47.520;19.144;2023-07-28T00:57:32;17.40;99.90
45619;DHT22;31343;47.520;19.144;2023-07-28T00:59:58;17.40;99.90
45619;DHT22;31343;47.520;19.144;2023-07-28T01:02:24;17.40;99.90
45619;DHT22;31343;47.520;19.144;2023-07-28T01:04:50;17.40;99.90
45619;DHT22;31343;47.520;19.144;2023-07-28T01:07:27;17.40;99.90
45619;DHT22;31343;47.520;19.144;2023-07-28T01:10:02;17.40;99.90
45619;DHT22;31343;47.520;19.144;2023-07-28T01:12:32;17.50;99.90
45619;DHT22;31343;47.520;19.144;2023-07-28T01:14:58;17.50;99.90
45619;DHT22;31343;47.520;19.144;2023-07-28T01:17:23;17.50;99.90
45619;DHT22;31343;47.520;19.144;2023-07-28T01:19:50;17.50;99.90
45619;DHT22;31343;47.520;19.144;2023-07-28T01:22:30;17.50;99.90
45619;DHT22;31343;47.520;19.144;2023-07-28T01:28:04;17.50;99.90
45619;DHT22;31343;47.520;19.144;2023-07-28T01:30:31;17.40;99.90
45619;DHT22;31343;47.520;19.144;2023-07-28T01:32:57;17.50;99.90
45619;DHT22;31343;47.520;19.144;2023-07-28T01:35:24;17.40;99.90
45619;DHT22;31343;47.520;19.144;2023-07-28T01:37:50;17.30;99.90
45619;DHT22;31343;47.520;19.144;2023-07-28T01:40:20;17.30;99.90
45619;DHT22;31343;47.520;19.144;2023-07-28T01:42:46;17.30;99.90
45619;DHT22;31343;47.520;19.144;2023-07-28T01:45:12;17.40;99.90
45619;DHT22;31343;47.520;19.144;2023-07-28T01:47:38;17.40;99.90
45619;DHT22;31343;47.520;19.144;2023-07-28T01:50:04;17.30;99.90
45619;DHT22;31343;47.520;19.144;2023-07-28T01:52:29;17.30;99.90
45619;DHT22;31343;47.520;19.144;2023-07-28T01:54:55;17.20;99.90
45619;DHT22;31343;47.520;19.144;2023-07-28T01:57:21;17.30;99.90
45619;DHT22;31343;47.520;19.144;2023-07-28T01:59:47;17.30;99.90
45619;DHT22;31343;47.520;19.144;2023-07-28T02:02:12;17.30;99.90
45619;DHT22;31343;47.520;19.144;2023-07-28T02:04:38;17.30;99.90
45619;DHT22;31343;47.520;19.144;2023-07-28T02:07:04;17.20;99.90
45619;DHT22;31343;47.520;19.144;2023-07-28T02:09:30;17.20;99.90
45619;DHT22;31343;47.520;19.144;2023-07-28T02:11:55;17.20;99.90
45619;DHT22;31343;47.520;19.144;2023-07-28T02:14:21;17.20;99.90
45619;DHT22;31343;47.520;19.144;2023-07-28T02:16:47;17.20;99.90
45619;DHT22;31343;47.520;19.144;2023-07-28T02:19:13;17.20;99.90
45619;DHT22;31343;47.520;19.144;2023-07-28T02:21:38;17.20;99.90
45619;DHT22;31343;47.520;19.144;2023-07-28T02:24:04;17.20;99.90
45619;DHT22;31343;47.520;19.144;2023-07-28T02:26:30;17.10;99.90
45619;DHT22;31343;47.520;19.144;2023-07-28T02:28:56;17.10;99.90
45619;DHT22;31343;47.520;19.144;2023-07-28T02:31:21;17.00;99.90
45619;DHT22;31343;47.520;19.144;2023-07-28T02:33:47;16.90;99.90
45619;DHT22;31343;47.520;19.144;2023-07-28T02:36:13;16.90;99.90
45619;DHT22;31343;47.520;19.144;2023-07-28T02:38:38;17.00;99.90
45619;DHT22;31343;47.520;19.144;2023-07-28T02:41:04;16.90;99.90
45619;DHT22;31343;47.520;19.144;2023-07-28T02:43:30;16.80;99.90
45619;DHT22;31343;47.520;19.144;2023-07-28T02:45:57;16.90;99.90
45619;DHT22;31343;47.520;19.144;2023-07-28T02:48:23;16.80;99.90
45619;DHT22;31343;47.520;19.144;2023-07-28T02:50:50;16.80;99.90
45619;DHT22;31343;47.520;19.144;2023-07-28T02:53:16;16.90;99.90
45619;DHT22;31343;47.520;19.144;2023-07-28T02:55:43;16.80;99.90
45619;DHT22;31343;47.520;19.144;2023-07-28T02:58:09;16.80;99.90
45619;DHT22;31343;47.520;19.144;2023-07-28T03:00:37;16.80;99.90
45619;DHT22;31343;47.520;19.144;2023-07-28T03:03:05;16.80;99.90
45619;DHT22;31343;47.520;19.144;2023-07-28T03:05:31;16.80;99.90
45619;DHT22;31343;47.520;19.144;2023-07-28T03:07:58;16.90;99.90
45619;DHT22;31343;47.520;19.144;2023-07-28T03:10:24;16.90;99.90
45619;DHT22;31343;47.520;19.144;2023-07-28T03:12:50;16.90;99.90
45619;DHT22;31343;47.520;19.144;2023-07-28T03:15:16;17.00;99.90
45619;DHT22;31343;47.520;19.144;2023-07-28T03:17:42;17.00;99.90
45619;DHT22;31343;47.520;19.144;2023-07-28T03:20:08;16.80;99.90
45619;DHT22;31343;47.520;19.144;2023-07-28T03:22:35;16.70;99.90
45619;DHT22;31343;47.520;19.144;2023-07-28T03:25:01;16.70;99.90
45619;DHT22;31343;47.520;19.144;2023-07-28T03:27:26;16.70;99.90
45619;DHT22;31343;47.520;19.144;2023-07-28T03:29:52;16.70;99.90
45619;DHT22;31343;47.520;19.144;2023-07-28T03:32:18;16.80;99.90
45619;DHT22;31343;47.520;19.144;2023-07-28T03:34:43;16.90;99.90
45619;DHT22;31343;47.520;19.144;2023-07-28T03:37:09;16.90;99.90
45619;DHT22;31343;47.520;19.144;2023-07-28T03:39:35;16.90;99.90
45619;DHT22;31343;47.520;19.144;2023-07-28T03:42:00;16.90;99.90
45619;DHT22;31343;47.520;19.144;2023-07-28T03:44:26;16.80;99.90
45619;DHT22;31343;47.520;19.144;2023-07-28T03:46:52;16.90;99.90
45619;DHT22;31343;47.520;19.144;2023-07-28T03:49:18;16.90;99.90
45619;DHT22;31343;47.520;19.144;2023-07-28T03:51:43;16.90;99.90
45619;DHT22;31343;47.520;19.144;2023-07-28T03:54:09;16.90;99.90
45619;DHT22;31343;47.520;19.144;2023-07-28T03:56:35;16.90;99.90
45619;DHT22;31343;47.520;19.144;2023-07-28T03:59:01;17.00;99.90
45619;DHT22;31343;47.520;19.144;2023-07-28T04:01:27;17.00;99.90
45619;DHT22;31343;47.520;19.144;2023-07-28T04:03:53;17.10;99.90
45619;DHT22;31343;47.520;19.144;2023-07-28T04:06:19;17.10;99.90
45619;DHT22;31343;47.520;19.144;2023-07-28T04:08:45;17.30;99.90
45619;DHT22;31343;47.520;19.144;2023-07-28T04:11:10;17.30;99.90
45619;DHT22;31343;47.520;19.144;2023-07-28T04:13:36;17.40;99.90
45619;DHT22;31343;47.520;19.144;2023-07-28T04:16:02;17.30;99.90
45619;DHT22;31343;47.520;19.144;2023-07-28T04:18:27;17.30;99.90
45619;DHT22;31343;47.520;19.144;2023-07-28T04:20:53;17.20;99.90
45619;DHT22;31343;47.520;19.144;2023-07-28T04:23:19;17.30;99.90
45619;DHT22;31343;47.520;19.144;2023-07-28T04:25:45;17.30;99.90
45619;DHT22;31343;47.520;19.144;2023-07-28T04:28:10;17.40;99.90
45619;DHT22;31343;47.520;19.144;2023-07-28T04:30:36;17.30;99.90
45619;DHT22;31343;47.520;19.144;2023-07-28T04:33:02;17.30;99.90
45619;DHT22;31343;47.520;19.144;2023-07-28T04:35:30;17.40;99.90
45619;DHT22;31343;47.520;19.144;2023-07-28T04:37:56;17.50;99.90
45619;DHT22;31343;47.520;19.144;2023-07-28T04:40:21;17.60;99.90
45619;DHT22;31343;47.520;19.144;2023-07-28T04:42:48;17.60;99.90
45619;DHT22;31343;47.520;19.144;2023-07-28T04:45:18;17.70;99.90
45619;DHT22;31343;47.520;19.144;2023-07-28T04:47:44;17.80;99.90
45619;DHT22;31343;47.520;19.144;2023-07-28T04:50:09;17.80;99.90
45619;DHT22;31343;47.520;19.144;2023-07-28T04:52:35;17.80;99.90
45619;DHT22;31343;47.520;19.144;2023-07-28T04:55:01;17.90;99.90
45619;DHT22;31343;47.520;19.144;2023-07-28T04:57:26;18.00;99.90
45619;DHT22;31343;47.520;19.144;2023-07-28T04:59:52;17.90;99.90
45619;DHT22;31343;47.520;19.144;2023-07-28T05:02:18;17.90;99.90
45619;DHT22;31343;47.520;19.144;2023-07-28T05:04:44;17.90;99.90
45619;DHT22;31343;47.520;19.144;2023-07-28T05:07:09;18.00;99.90
45619;DHT22;31343;47.520;19.144;2023-07-28T05:09:35;18.00;99.90
45619;DHT22;31343;47.520;19.144;2023-07-28T05:12:01;18.10;99.90
45619;DHT22;31343;47.520;19.144;2023-07-28T05:14:26;18.20;99.90
45619;DHT22;31343;47.520;19.144;2023-07-28T05:16:52;18.30;99.90
45619;DHT22;31343;47.520;19.144;2023-07-28T05:19:18;18.30;99.90
45619;DHT22;31343;47.520;19.144;2023-07-28T05:21:44;18.40;99.90
45619;DHT22;31343;47.520;19.144;2023-07-28T05:24:10;18.60;99.90
45619;DHT22;31343;47.520;19.144;2023-07-28T05:26:35;18.70;99.90
45619;DHT22;31343;47.520;19.144;2023-07-28T05:29:01;18.90;99.90
45619;DHT22;31343;47.520;19.144;2023-07-28T05:31:27;18.90;99.90
45619;DHT22;31343;47.520;19.144;2023-07-28T05:33:53;19.10;99.90
45619;DHT22;31343;47.520;19.144;2023-07-28T05:36:19;19.20;99.90
45619;DHT22;31343;47.520;19.144;2023-07-28T05:38:45;19.30;99.90
45619;DHT22;31343;47.520;19.144;2023-07-28T05:41:11;19.30;99.90
45619;DHT22;31343;47.520;19.144;2023-07-28T05:43:36;19.20;99.90
45619;DHT22;31343;47.520;19.144;2023-07-28T05:46:02;19.10;99.90
45619;DHT22;31343;47.520;19.144;2023-07-28T05:48:28;18.90;99.90
45619;DHT22;31343;47.520;19.144;2023-07-28T05:50:54;18.90;99.90
45619;DHT22;31343;47.520;19.144;2023-07-28T05:53:23;19.10;99.90
45619;DHT22;31343;47.520;19.144;2023-07-28T05:55:48;19.20;99.90
45619;DHT22;31343;47.520;19.144;2023-07-28T05:58:14;19.30;99.90
45619;DHT22;31343;47.520;19.144;2023-07-28T06:00:40;19.30;99.90
45619;DHT22;31343;47.520;19.144;2023-07-28T06:03:09;19.40;99.90
45619;DHT22;31343;47.520;19.144;2023-07-28T06:05:38;19.20;99.90
45619;DHT22;31343;47.520;19.144;2023-07-28T06:08:04;19.30;99.90
45619;DHT22;31343;47.520;19.144;2023-07-28T06:10:30;19.60;99.90
45619;DHT22;31343;47.520;19.144;2023-07-28T06:12:56;20.20;99.90
45619;DHT22;31343;47.520;19.144;2023-07-28T06:15:21;20.50;99.90
45619;DHT22;31343;47.520;19.144;2023-07-28T06:17:47;20.80;99.90
45619;DHT22;31343;47.520;19.144;2023-07-28T06:20:13;21.10;99.90
45619;DHT22;31343;47.520;19.144;2023-07-28T06:22:39;21.40;99.90
45619;DHT22;31343;47.520;19.144;2023-07-28T06:25:05;22.40;99.20
45619;DHT22;31343;47.520;19.144;2023-07-28T06:27:31;22.90;97.50
45619;DHT22;31343;47.520;19.144;2023-07-28T06:29:57;22.60;97.60
45619;DHT22;31343;47.520;19.144;2023-07-28T06:32:22;23.70;96.70
45619;DHT22;31343;47.520;19.144;2023-07-28T06:34:49;24.70;95.00
45619;DHT22;31343;47.520;19.144;2023-07-28T06:37:16;25.30;93.80
45619;DHT22;31343;47.520;19.144;2023-07-28T06:39:41;25.20;93.50
45619;DHT22;31343;47.520;19.144;2023-07-28T06:42:07;26.50;92.20
45619;DHT22;31343;47.520;19.144;2023-07-28T06:44:33;25.70;91.80
45619;DHT22;31343;47.520;19.144;2023-07-28T06:46:59;25.50;92.60
45619;DHT22;31343;47.520;19.144;2023-07-28T06:49:24;25.40;91.80
45619;DHT22;31343;47.520;19.144;2023-07-28T06:51:50;24.40;92.90
45619;DHT22;31343;47.520;19.144;2023-07-28T06:54:16;23.60;93.60
45619;DHT22;31343;47.520;19.144;2023-07-28T06:56:41;22.60;95.40
45619;DHT22;31343;47.520;19.144;2023-07-28T06:59:07;22.00;96.10
45619;DHT22;31343;47.520;19.144;2023-07-28T07:01:34;21.80;97.10
45619;DHT22;31343;47.520;19.144;2023-07-28T07:03:59;21.90;96.80
45619;DHT22;31343;47.520;19.144;2023-07-28T07:06:27;21.90;96.60
45619;DHT22;31343;47.520;19.144;2023-07-28T07:08:52;21.60;96.40
45619;DHT22;31343;47.520;19.144;2023-07-28T07:11:18;22.00;96.40
45619;DHT22;31343;47.520;19.144;2023-07-28T07:13:44;22.40;95.20
45619;DHT22;31343;47.520;19.144;2023-07-28T07:16:16;23.10;95.00
45619;DHT22;31343;47.520;19.144;2023-07-28T07:18:45;23.50;94.20
45619;DHT22;31343;47.520;19.144;2023-07-28T07:21:11;23.40;93.70
45619;DHT22;31343;47.520;19.144;2023-07-28T07:23:37;23.90;93.50
45619;DHT22;31343;47.520;19.144;2023-07-28T07:26:03;24.70;91.90
45619;DHT22;31343;47.520;19.144;2023-07-28T07:28:29;24.10;92.40
45619;DHT22;31343;47.520;19.144;2023-07-28T07:30:57;23.90;93.00
45619;DHT22;31343;47.520;19.144;2023-07-28T07:33:23;23.80;93.20
45619;DHT22;31343;47.520;19.144;2023-07-28T07:35:50;23.40;93.70
45619;DHT22;31343;47.520;19.144;2023-07-28T07:38:15;23.00;93.70
45619;DHT22;31343;47.520;19.144;2023-07-28T07:40:41;22.80;94.40
45619;DHT22;31343;47.520;19.144;2023-07-28T07:43:07;23.00;94.70
45619;DHT22;31343;47.520;19.144;2023-07-28T07:45:33;22.90;94.30
45619;DHT22;31343;47.520;19.144;2023-07-28T07:47:59;22.80;94.60
45619;DHT22;31343;47.520;19.144;2023-07-28T07:50:25;22.90;95.10
45619;DHT22;31343;47.520;19.144;2023-07-28T07:52:52;23.00;94.50
45619;DHT22;31343;47.520;19.144;2023-07-28T07:55:17;22.90;94.40
45619;DHT22;31343;47.520;19.144;2023-07-28T07:57:43;23.10;94.50
45619;DHT22;31343;47.520;19.144;2023-07-28T08:00:09;23.10;93.90
45619;DHT22;31343;47.520;19.144;2023-07-28T08:02:36;23.10;93.90
45619;DHT22;31343;47.520;19.144;2023-07-28T08:05:02;23.20;93.70
45619;DHT22;31343;47.520;19.144;2023-07-28T08:07:28;23.30;93.30
45619;DHT22;31343;47.520;19.144;2023-07-28T08:09:54;23.20;93.30
45619;DHT22;31343;47.520;19.144;2023-07-28T08:12:20;23.20;93.80
45619;DHT22;31343;47.520;19.144;2023-07-28T08:14:45;23.30;94.00
45619;DHT22;31343;47.520;19.144;2023-07-28T08:17:12;23.30;93.50
45619;DHT22;31343;47.520;19.144;2023-07-28T08:19:37;23.30;93.80
45619;DHT22;31343;47.520;19.144;2023-07-28T08:22:03;23.30;93.80
45619;DHT22;31343;47.520;19.144;2023-07-28T08:26:56;23.20;94.40
45619;DHT22;31343;47.520;19.144;2023-07-28T08:29:22;23.60;93.90
45619;DHT22;31343;47.520;19.144;2023-07-28T08:31:47;23.90;93.30
45619;DHT22;31343;47.520;19.144;2023-07-28T08:34:13;23.90;93.10
45619;DHT22;31343;47.520;19.144;2023-07-28T08:36:39;23.90;93.00
45619;DHT22;31343;47.520;19.144;2023-07-28T08:39:05;23.70;93.00
45619;DHT22;31343;47.520;19.144;2023-07-28T08:41:31;23.50;93.20
45619;DHT22;31343;47.520;19.144;2023-07-28T08:43:56;23.50;93.20
45619;DHT22;31343;47.520;19.144;2023-07-28T08:46:22;23.40;92.90
45619;DHT22;31343;47.520;19.144;2023-07-28T08:48:48;23.30;93.20
45619;DHT22;31343;47.520;19.144;2023-07-28T08:51:14;23.40;93.20
45619;DHT22;31343;47.520;19.144;2023-07-28T08:53:41;24.20;93.20
45619;DHT22;31343;47.520;19.144;2023-07-28T08:56:07;24.80;91.60
45619;DHT22;31343;47.520;19.144;2023-07-28T08:58:32;24.90;91.90
45619;DHT22;31343;47.520;19.144;2023-07-28T09:00:59;25.10;91.50
45619;DHT22;31343;47.520;19.144;2023-07-28T09:03:27;25.60;91.10
45619;DHT22;31343;47.520;19.144;2023-07-28T09:06:00;25.80;88.90
45619;DHT22;31343;47.520;19.144;2023-07-28T09:08:26;25.30;89.20
45619;DHT22;31343;47.520;19.144;2023-07-28T09:10:52;25.10;90.20
45619;DHT22;31343;47.520;19.144;2023-07-28T09:13:18;25.40;89.50
45619;DHT22;31343;47.520;19.144;2023-07-28T09:15:45;25.50;90.30
45619;DHT22;31343;47.520;19.144;2023-07-28T09:18:15;25.80;90.00
45619;DHT22;31343;47.520;19.144;2023-07-28T09:20:41;26.10;89.90
45619;DHT22;31343;47.520;19.144;2023-07-28T09:23:08;26.20;88.60
45619;DHT22;31343;47.520;19.144;2023-07-28T09:25:36;26.20;89.40
45619;DHT22;31343;47.520;19.144;2023-07-28T09:28:02;26.20;87.60
45619;DHT22;31343;47.520;19.144;2023-07-28T09:30:46;26.10;88.20
45619;DHT22;31343;47.520;19.144;2023-07-28T09:33:12;26.00;89.00
45619;DHT22;31343;47.520;19.144;2023-07-28T09:35:47;26.00;89.30
45619;DHT22;31343;47.520;19.144;2023-07-28T09:38:14;26.30;90.00
45619;DHT22;31343;47.520;19.144;2023-07-28T09:40:40;26.20;89.20
45619;DHT22;31343;47.520;19.144;2023-07-28T09:43:07;25.90;89.10
45619;DHT22;31343;47.520;19.144;2023-07-28T09:45:34;25.80;89.00
45619;DHT22;31343;47.520;19.144;2023-07-28T09:48:02;26.00;88.90
45619;DHT22;31343;47.520;19.144;2023-07-28T09:50:29;26.00;88.60
45619;DHT22;31343;47.520;19.144;2023-07-28T09:53:00;26.00;90.20
45619;DHT22;31343;47.520;19.144;2023-07-28T09:55:26;26.40;89.80
45619;DHT22;31343;47.520;19.144;2023-07-28T09:57:55;26.40;89.90
45619;DHT22;31343;47.520;19.144;2023-07-28T10:00:22;26.40;89.90
45619;DHT22;31343;47.520;19.144;2023-07-28T10:02:49;26.40;90.30
45619;DHT22;31343;47.520;19.144;2023-07-28T10:05:15;26.80;90.00
45619;DHT22;31343;47.520;19.144;2023-07-28T10:07:43;27.00;88.60
45619;DHT22;31343;47.520;19.144;2023-07-28T10:10:12;26.90;88.70
45619;DHT22;31343;47.520;19.144;2023-07-28T10:12:51;26.90;88.90
45619;DHT22;31343;47.520;19.144;2023-07-28T10:15:19;26.50;89.00
45619;DHT22;31343;47.520;19.144;2023-07-28T10:17:49;26.40;90.10
45619;DHT22;31343;47.520;19.144;2023-07-28T10:20:40;26.60;90.60
45619;DHT22;31343;47.520;19.144;2023-07-28T10:23:20;26.90;88.90
45619;DHT22;31343;47.520;19.144;2023-07-28T10:25:47;27.00;89.70
45619;DHT22;31343;47.520;19.144;2023-07-28T10:30:55;26.70;89.10
45619;DHT22;31343;47.520;19.144;2023-07-28T10:33:35;26.60;90.20
45619;DHT22;31343;47.520;19.144;2023-07-28T10:36:15;26.80;90.00
45619;DHT22;31343;47.520;19.144;2023-07-28T10:38:41;26.90;90.40
45619;DHT22;31343;47.520;19.144;2023-07-28T10:41:16;27.10;88.80
45619;DHT22;31343;47.520;19.144;2023-07-28T10:43:44;27.40;90.00
45619;DHT22;31343;47.520;19.144;2023-07-28T10:46:15;27.50;89.50
45619;DHT22;31343;47.520;19.144;2023-07-28T10:48:42;27.50;89.50
45619;DHT22;31343;47.520;19.144;2023-07-28T10:51:09;27.50;88.20
45619;DHT22;31343;47.520;19.144;2023-07-28T10:53:37;27.00;89.60
45619;DHT22;31343;47.520;19.144;2023-07-28T10:56:03;27.40;90.00
45619;DHT22;31343;47.520;19.144;2023-07-28T10:58:31;27.60;89.30
45619;DHT22;31343;47.520;19.144;2023-07-28T11:00:57;28.10;89.30
45619;DHT22;31343;47.520;19.144;2023-07-28T11:03:23;28.20;88.40
45619;DHT22;31343;47.520;19.144;2023-07-28T11:05:49;28.60;88.40
45619;DHT22;31343;47.520;19.144;2023-07-28T11:08:16;29.30;87.40
45619;DHT22;31343;47.520;19.144;2023-07-28T11:10:42;29.30;86.60
45619;DHT22;31343;47.520;19.144;2023-07-28T11:13:08;29.70;86.90
45619;DHT22;31343;47.520;19.144;2023-07-28T11:15:33;30.60;84.40
45619;DHT22;31343;47.520;19.144;2023-07-28T11:17:59;30.10;83.20
45619;DHT22;31343;47.520;19.144;2023-07-28T11:20:27;30.50;83.60
45619;DHT22;31343;47.520;19.144;2023-07-28T11:23:00;31.10;81.40
45619;DHT22;31343;47.520;19.144;2023-07-28T11:25:28;31.50;80.70
45619;DHT22;31343;47.520;19.144;2023-07-28T11:27:55;31.30;79.80
45619;DHT22;31343;47.520;19.144;2023-07-28T11:30:22;30.70;81.20
45619;DHT22;31343;47.520;19.144;2023-07-28T11:32:52;30.40;81.70
45619;DHT22;31343;47.520;19.144;2023-07-28T11:35:20;30.30;81.70
45619;DHT22;31343;47.520;19.144;2023-07-28T11:37:48;29.70;82.70
45619;DHT22;31343;47.520;19.144;2023-07-28T11:40:17;29.50;83.90
45619;DHT22;31343;47.520;19.144;2023-07-28T11:42:54;30.00;82.00
45619;DHT22;31343;47.520;19.144;2023-07-28T11:45:21;30.30;81.80
45619;DHT22;31343;47.520;19.144;2023-07-28T11:47:55;30.80;80.50
45619;DHT22;31343;47.520;19.144;2023-07-28T11:50:29;31.40;81.30
45619;DHT22;31343;47.520;19.144;2023-07-28T11:52:55;32.40;78.50
45619;DHT22;31343;47.520;19.144;2023-07-28T11:55:23;33.00;74.80
45619;DHT22;31343;47.520;19.144;2023-07-28T11:57:51;32.10;75.00
45619;DHT22;31343;47.520;19.144;2023-07-28T12:00:18;32.00;77.40
45619;DHT22;31343;47.520;19.144;2023-07-28T12:03:04;31.80;76.90
45619;DHT22;31343;47.520;19.144;2023-07-28T12:05:31;31.30;76.80
45619;DHT22;31343;47.520;19.144;2023-07-28T12:07:56;30.60;78.80
45619;DHT22;31343;47.520;19.144;2023-07-28T12:10:22;31.10;78.20
45619;DHT22;31343;47.520;19.144;2023-07-28T12:12:49;32.20;76.80
45619;DHT22;31343;47.520;19.144;2023-07-28T12:18:14;33.40;73.90
45619;DHT22;31343;47.520;19.144;2023-07-28T12:20:41;34.10;71.70
45619;DHT22;31343;47.520;19.144;2023-07-28T12:23:08;34.10;71.10
45619;DHT22;31343;47.520;19.144;2023-07-28T12:25:37;33.70;69.40
45619;DHT22;31343;47.520;19.144;2023-07-28T12:28:03;32.50;71.60
45619;DHT22;31343;47.520;19.144;2023-07-28T12:30:29;32.40;73.00
45619;DHT22;31343;47.520;19.144;2023-07-28T12:32:55;32.80;72.50
45619;DHT22;31343;47.520;19.144;2023-07-28T12:35:21;32.50;72.70
45619;DHT22;31343;47.520;19.144;2023-07-28T12:37:50;32.50;72.40
45619;DHT22;31343;47.520;19.144;2023-07-28T12:40:17;33.00;72.70
45619;DHT22;31343;47.520;19.144;2023-07-28T12:42:42;33.80;70.70
45619;DHT22;31343;47.520;19.144;2023-07-28T12:45:09;35.20;70.40
45619;DHT22;31343;47.520;19.144;2023-07-28T12:47:36;35.40;67.70
45619;DHT22;31343;47.520;19.144;2023-07-28T12:50:02;34.60;68.10
45619;DHT22;31343;47.520;19.144;2023-07-28T12:52:29;34.50;68.50
45619;DHT22;31343;47.520;19.144;2023-07-28T12:54:55;33.80;69.30
45619;DHT22;31343;47.520;19.144;2023-07-28T12:57:21;33.40;68.50
45619;DHT22;31343;47.520;19.144;2023-07-28T12:59:47;33.00;69.90
45619;DHT22;31343;47.520;19.144;2023-07-28T13:02:13;32.60;70.60
45619;DHT22;31343;47.520;19.144;2023-07-28T13:04:39;32.40;70.10
45619;DHT22;31343;47.520;19.144;2023-07-28T13:07:05;32.10;72.00
45619;DHT22;31343;47.520;19.144;2023-07-28T13:09:31;31.80;71.60
45619;DHT22;31343;47.520;19.144;2023-07-28T13:11:57;31.70;72.50
45619;DHT22;31343;47.520;19.144;2023-07-28T13:14:24;31.80;72.40
45619;DHT22;31343;47.520;19.144;2023-07-28T13:16:50;31.30;72.40
45619;DHT22;31343;47.520;19.144;2023-07-28T13:19:16;31.30;73.70
45619;DHT22;31343;47.520;19.144;2023-07-28T13:21:42;31.00;72.80
45619;DHT22;31343;47.520;19.144;2023-07-28T13:24:07;31.00;74.00
45619;DHT22;31343;47.520;19.144;2023-07-28T13:26:34;31.20;74.10
45619;DHT22;31343;47.520;19.144;2023-07-28T13:29:00;31.40;73.80
45619;DHT22;31343;47.520;19.144;2023-07-28T13:31:29;31.30;71.10
45619;DHT22;31343;47.520;19.144;2023-07-28T13:33:54;31.20;72.00
45619;DHT22;31343;47.520;19.144;2023-07-28T13:36:21;31.30;71.90
45619;DHT22;31343;47.520;19.144;2023-07-28T13:38:47;31.30;71.60
45619;DHT22;31343;47.520;19.144;2023-07-28T13:41:16;31.40;71.80
45619;DHT22;31343;47.520;19.144;2023-07-28T13:43:42;31.00;71.30
45619;DHT22;31343;47.520;19.144;2023-07-28T13:46:07;31.00;71.70
45619;DHT22;31343;47.520;19.144;2023-07-28T13:48:34;31.00;71.20
45619;DHT22;31343;47.520;19.144;2023-07-28T13:51:02;30.70;71.20
45619;DHT22;31343;47.520;19.144;2023-07-28T13:53:28;30.60;73.40
45619;DHT22;31343;47.520;19.144;2023-07-28T13:55:55;30.20;74.70
45619;DHT22;31343;47.520;19.144;2023-07-28T13:58:22;30.00;74.50
45619;DHT22;31343;47.520;19.144;2023-07-28T14:00:48;29.80;74.70
45619;DHT22;31343;47.520;19.144;2023-07-28T14:03:14;29.50;75.90
45619;DHT22;31343;47.520;19.144;2023-07-28T14:05:43;29.40;75.70
45619;DHT22;31343;47.520;19.144;2023-07-28T14:08:09;29.30;76.10
45619;DHT22;31343;47.520;19.144;2023-07-28T14:10:36;29.30;76.60
45619;DHT22;31343;47.520;19.144;2023-07-28T14:13:03;29.30;76.60
45619;DHT22;31343;47.520;19.144;2023-07-28T14:15:30;29.20;77.00
45619;DHT22;31343;47.520;19.144;2023-07-28T14:18:01;29.10;77.40
45619;DHT22;31343;47.520;19.144;2023-07-28T14:20:27;29.00;77.30
45619;DHT22;31343;47.520;19.144;2023-07-28T14:22:53;28.80;77.90
45619;DHT22;31343;47.520;19.144;2023-07-28T14:25:19;28.90;78.50
45619;DHT22;31343;47.520;19.144;2023-07-28T14:27:45;29.00;78.80
45619;DHT22;31343;47.520;19.144;2023-07-28T14:30:12;29.00;79.00
45619;DHT22;31343;47.520;19.144;2023-07-28T14:32:38;28.90;79.50
45619;DHT22;31343;47.520;19.144;2023-07-28T14:35:03;28.90;79.50
45619;DHT22;31343;47.520;19.144;2023-07-28T14:37:29;28.90;77.80
45619;DHT22;31343;47.520;19.144;2023-07-28T14:39:55;28.70;78.90
45619;DHT22;31343;47.520;19.144;2023-07-28T14:42:21;28.60;79.50
45619;DHT22;31343;47.520;19.144;2023-07-28T14:44:46;28.70;79.50
45619;DHT22;31343;47.520;19.144;2023-07-28T14:47:12;28.90;77.20
45619;DHT22;31343;47.520;19.144;2023-07-28T14:49:38;28.90;76.80
45619;DHT22;31343;47.520;19.144;2023-07-28T14:52:03;28.90;78.20
45619;DHT22;31343;47.520;19.144;2023-07-28T14:54:30;29.00;77.30
45619;DHT22;31343;47.520;19.144;2023-07-28T14:56:56;29.10;78.10
45619;DHT22;31343;47.520;19.144;2023-07-28T14:59:22;29.20;77.10
45619;DHT22;31343;47.520;19.144;2023-07-28T15:01:48;29.20;77.10
45619;DHT22;31343;47.520;19.144;2023-07-28T15:04:14;29.10;77.80
45619;DHT22;31343;47.520;19.144;2023-07-28T15:06:42;29.20;78.60
45619;DHT22;31343;47.520;19.144;2023-07-28T15:09:07;29.20;79.10
45619;DHT22;31343;47.520;19.144;2023-07-28T15:11:33;29.00;79.60
45619;DHT22;31343;47.520;19.144;2023-07-28T15:13:59;28.90;80.50
45619;DHT22;31343;47.520;19.144;2023-07-28T15:16:24;28.80;80.20
45619;DHT22;31343;47.520;19.144;2023-07-28T15:18:52;28.90;80.40
45619;DHT22;31343;47.520;19.144;2023-07-28T15:21:19;28.90;81.00
45619;DHT22;31343;47.520;19.144;2023-07-28T15:23:45;29.00;80.20